Sedona, AZ

4:33 PM MST on August 20, 2014 (GMT -0700)
CoffeePot Cottages | Change Station
CLOSE
Current Station
Personal Weather Station
Location: Sedona, AZ
Elevation: 4536 ft
Nearby Weather Stations
Active Advisory: Areal Flood Advisory Active Notice: Record Report

Elev 4536 ft 34.88 °N, 111.79 °W | Updated 6 seconds ago

Clear
Clear
78.6 °F
Feels Like 80 °F
N
0.0
Wind Variable Wind from WNW
Gusts 0.0 mph

Today
High -- | Low -- °F
--% Chance of Precip.
Yesterday
High -- | Low -- °F
Precip. -- in
5:51 AM 7:09 PM
Waning Crescent, 18% visible
Pressure 30.09 in
Visibility 10.0 miles
Clouds Clear
Heat Index 80 °F
Dew Point 60 °F
Humidity 52%
Rainfall 0.00 in
Snow Depth Not available.
UV 4 out of 12
Pollen 5.10 out of 12
Air Quality Not available.
Flu Activity Not available.
METAR KSEZ 202315Z AUTO 00000KT 10SM CLR 26/12 A3009 RMK AO2

More Conditions Fewer Conditions

Pressure 30.09 in
Visibility 10.0 miles
Clouds Clear
Heat Index 80 °F
Dew Point 60 °F
Humidity 52%
Rainfall 0.00 in
Snow Depth Not available.
UV 4 out of 12
Pollen 5.10 out of 12
Air Quality Not available.
Flu Activity Not available.
METAR KSEZ 202315Z AUTO 00000KT 10SM CLR 26/12 A3009 RMK AO2

More Conditions Fewer Conditions

10-Day Weather Forecast

Almanac

Astronomy

Aug. 20, 2014 Rise Set
Actual Time 5:51 AM MST 7:09 PM MST
Civil Twilight 5:24 AM MST 7:35 PM MST
Nautical Twilight 4:53 AM MST 8:07 PM MST
Astronomical Twilight 4:20 AM MST 8:39 PM MST
Moon 1:38 AM MST 3:53 PM MST
Length of Visible Light 14h 10m
Length of Day
13h 18m
Tomorrow will be 1m 59s shorter.
Waning Crescent, 18% of the Moon is Illuminated
Today
Waning Crescent
Aug 25
New
Sep 2
First Quarter
Sep 8
Full
Sep 15
Last Quarter

Today's Extremes

State Highs State Lows

Community

WunderPhotos

Upload Photos

1,745,799 photos uploaded!

Nearby

Snow Depth

Station Depth Elevation
Snowslide Canyon 1 in 9730 ft
Promontory 0 in 7930 ft
Workman Creek 1 in 6900 ft
Beaver Head 0 in 7990 ft

Earthquake Activity

City Distance Mag. Time & Date
No recent earthquake activity has been reported nearby.
Minimum magnitude displayed is 2.5.

Coastal Water Temperatures

Place Temperature
No Stations Reporting

Nearby Weather Stations